PWSweather.com
Personal Weather Stations
Station Observations
KPAFREED2
New Sewickley Township, Pa, Freedom, PA 15042

New Sewickley Township, PaFreedom, PA 15042

Lat: 40.7080574, Lon: -80.21583557

Elevation: 1128

Station Type: Acurite Pro / Acu-Link

High Low Average
Temperature 86.8°F30.4°C 59.6°F15.3°C 71.6°F22.0°C
Dew Point 69.2°F20.7°C 54.2°F12.3°C 61.9°F16.6°C
Winds 4.4 mph 7.1 kmh Calm Calm 1.0 mph SSW1.6 kmh SSW
Wind Gusts 7.6 mph12.2 kmh -- 3.0 mph4.8 kmh
Humidity 90% 48% 73%
Pressure 29.98 in1015.2 mb 29.90 in1012.5 mb -
Precipitation 0.00 in0.0 mm - -
Hour Temp Dew Point Humidity Winds Wind Gusts Pressure Precip Precip Rate Daily Precip Total
12:00 AM 61.2°F16.2°C 54.4°F12.4°C 78% 0.4 mph S0.6 kmh S 0.7 mph1.1 kmh 29.93 in1013.5 mb 0.00 in0.0 mm 0.00 in/hr0.0 mm/hr 0.00 in0.0 mm
12:05 AM 61.2°F16.2°C 54.7°F12.6°C 79% Calm Calm 0.4 mph0.6 kmh 29.93 in1013.5 mb 0.00 in0.0 mm 0.00 in/hr0.0 mm/hr 0.00 in0.0 mm
12:10 AM 61.0°F16.1°C 54.6°F12.6°C 79% Calm Calm 0.2 mph0.3 kmh 29.93 in1013.5 mb 0.00 in0.0 mm 0.00 in/hr0.0 mm/hr 0.00 in0.0 mm
12:15 AM 61.0°F16.1°C 54.6°F12.6°C 79% Calm Calm -- 29.94 in1013.9 mb 0.00 in0.0 mm 0.00 in/hr0.0 mm/hr 0.00 in0.0 mm
12:20 AM 60.8°F16.0°C 54.4°F12.4°C 79% Calm Calm -- 29.93 in1013.5 mb 0.00 in0.0 mm 0.00 in/hr0.0 mm/hr 0.00 in0.0 mm
12:25 AM 60.8°F16.0°C 54.4°F12.4°C 79% 0.4 mph SE0.6 kmh SE 0.7 mph1.1 kmh 29.93 in1013.5 mb 0.00 in0.0 mm 0.00 in/hr0.0 mm/hr 0.00 in0.0 mm
12:30 AM 60.8°F16.0°C 54.4°F12.4°C 79% Calm Calm 0.7 mph1.1 kmh 29.93 in1013.5 mb 0.00 in0.0 mm 0.00 in/hr0.0 mm/hr 0.00 in0.0 mm
12:35 AM 60.7°F15.9°C 54.5°F12.5°C 80% 0.4 mph SE0.6 kmh SE 0.4 mph0.6 kmh 29.93 in1013.5 mb 0.00 in0.0 mm 0.00 in/hr0.0 mm/hr 0.00 in0.0 mm
12:40 AM 60.3°F15.7°C 54.2°F12.3°C 80% Calm Calm 0.4 mph0.6 kmh 29.93 in1013.5 mb 0.00 in0.0 mm 0.00 in/hr0.0 mm/hr 0.00 in0.0 mm
12:45 AM 60.3°F15.7°C 54.2°F12.3°C 80% 0.8 mph SE1.3 kmh SE 0.9 mph1.4 kmh 29.93 in1013.5 mb 0.00 in0.0 mm 0.00 in/hr0.0 mm/hr 0.00 in0.0 mm
12:50 AM 60.1°F15.6°C 54.4°F12.4°C 81% 0.5 mph ESE0.8 kmh ESE 0.9 mph1.4 kmh 29.93 in1013.5 mb 0.00 in0.0 mm 0.00 in/hr0.0 mm/hr 0.00 in0.0 mm
12:55 AM 60.1°F15.6°C 54.4°F12.4°C 81% 0.4 mph ESE0.6 kmh ESE 0.9 mph1.4 kmh 29.93 in1013.5 mb 0.00 in0.0 mm 0.00 in/hr0.0 mm/hr 0.00 in0.0 mm
01:00 AM 60.1°F15.6°C 54.4°F12.4°C 81% 0.9 mph ESE1.4 kmh ESE 1.1 mph1.8 kmh 29.92 in1013.2 mb 0.00 in0.0 mm 0.00 in/hr0.0 mm/hr 0.00 in0.0 mm
01:05 AM 60.1°F15.6°C 54.4°F12.4°C 81% 0.6 mph ESE1.0 kmh ESE 1.1 mph1.8 kmh 29.92 in1013.2 mb 0.00 in0.0 mm 0.00 in/hr0.0 mm/hr 0.00 in0.0 mm
01:10 AM 60.1°F15.6°C 54.6°F12.6°C 82% Calm Calm 1.1 mph1.8 kmh 29.92 in1013.2 mb 0.00 in0.0 mm 0.00 in/hr0.0 mm/hr 0.00 in0.0 mm
01:15 AM 59.9°F15.5°C 54.8°F12.7°C 83% Calm Calm 1.1 mph1.8 kmh 29.92 in1013.2 mb 0.00 in0.0 mm 0.00 in/hr0.0 mm/hr 0.00 in0.0 mm
01:20 AM 59.8°F15.4°C 54.6°F12.6°C 83% Calm Calm -- 29.92 in1013.2 mb 0.00 in0.0 mm 0.00 in/hr0.0 mm/hr 0.00 in0.0 mm
01:25 AM 59.8°F15.4°C 54.6°F12.6°C 83% Calm Calm -- 29.92 in1013.2 mb 0.00 in0.0 mm 0.00 in/hr0.0 mm/hr 0.00 in0.0 mm
01:30 AM 59.6°F15.3°C 54.5°F12.5°C 83% Calm Calm -- 29.92 in1013.2 mb 0.00 in0.0 mm 0.00 in/hr0.0 mm/hr 0.00 in0.0 mm
01:35 AM 59.6°F15.3°C 54.5°F12.5°C 83% Calm Calm -- 29.92 in1013.2 mb 0.00 in0.0 mm 0.00 in/hr0.0 mm/hr 0.00 in0.0 mm
01:40 AM 59.6°F15.3°C 54.5°F12.5°C 83% 0.4 mph ESE0.6 kmh ESE 0.4 mph0.6 kmh 29.92 in1013.2 mb 0.00 in0.0 mm 0.00 in/hr0.0 mm/hr 0.00 in0.0 mm
01:45 AM 59.6°F15.3°C 54.5°F12.5°C 83% Calm Calm 0.4 mph0.6 kmh 29.92 in1013.2 mb 0.00 in0.0 mm 0.00 in/hr0.0 mm/hr 0.00 in0.0 mm
01:50 AM 59.6°F15.3°C 54.5°F12.5°C 83% Calm Calm 0.2 mph0.3 kmh 29.92 in1013.2 mb 0.00 in0.0 mm 0.00 in/hr0.0 mm/hr 0.00 in0.0 mm
01:55 AM 59.6°F15.3°C 54.5°F12.5°C 83% 0.7 mph ESE1.1 kmh ESE 1.1 mph1.8 kmh 29.92 in1013.2 mb 0.00 in0.0 mm 0.00 in/hr0.0 mm/hr 0.00 in0.0 mm
02:00 AM 59.8°F15.4°C 54.9°F12.7°C 84% 0.5 mph SE0.8 kmh SE 1.1 mph1.8 kmh 29.91 in1012.9 mb 0.00 in0.0 mm 0.00 in/hr0.0 mm/hr 0.00 in0.0 mm
02:05 AM 59.8°F15.4°C 54.9°F12.7°C 84% Calm Calm 0.9 mph1.4 kmh 29.92 in1013.2 mb 0.00 in0.0 mm 0.00 in/hr0.0 mm/hr 0.00 in0.0 mm
02:10 AM 59.8°F15.4°C 54.9°F12.7°C 84% 1.0 mph SE1.6 kmh SE 1.6 mph2.6 kmh 29.92 in1013.2 mb 0.00 in0.0 mm 0.00 in/hr0.0 mm/hr 0.00 in0.0 mm
02:15 AM 59.8°F15.4°C 54.9°F12.7°C 84% 0.6 mph SE1.0 kmh SE 1.6 mph2.6 kmh 29.91 in1012.9 mb 0.00 in0.0 mm 0.00 in/hr0.0 mm/hr 0.00 in0.0 mm
02:20 AM 59.9°F15.5°C 55.1°F12.8°C 84% 1.5 mph ESE2.4 kmh ESE 1.8 mph2.9 kmh 29.90 in1012.5 mb 0.00 in0.0 mm 0.00 in/hr0.0 mm/hr 0.00 in0.0 mm
02:25 AM 60.1°F15.6°C 55.3°F12.9°C 84% 1.0 mph SE1.6 kmh SE 1.8 mph2.9 kmh 29.90 in1012.5 mb 0.00 in0.0 mm 0.00 in/hr0.0 mm/hr 0.00 in0.0 mm
02:30 AM 60.1°F15.6°C 55.6°F13.1°C 85% 0.9 mph E1.4 kmh E 1.3 mph2.1 kmh 29.90 in1012.5 mb 0.00 in0.0 mm 0.00 in/hr0.0 mm/hr 0.00 in0.0 mm
02:35 AM 60.3°F15.7°C 55.8°F13.2°C 85% 0.6 mph SE1.0 kmh SE 1.1 mph1.8 kmh 29.91 in1012.9 mb 0.00 in0.0 mm 0.00 in/hr0.0 mm/hr 0.00 in0.0 mm
02:40 AM 60.3°F15.7°C 55.8°F13.2°C 85% 1.1 mph ESE1.8 kmh ESE 1.8 mph2.9 kmh 29.90 in1012.5 mb 0.00 in0.0 mm 0.00 in/hr0.0 mm/hr 0.00 in0.0 mm
02:45 AM 60.5°F15.8°C 56.0°F13.3°C 85% 1.3 mph SE2.1 kmh SE 2.0 mph3.2 kmh 29.90 in1012.5 mb 0.00 in0.0 mm 0.00 in/hr0.0 mm/hr 0.00 in0.0 mm
02:50 AM 60.5°F15.8°C 56.0°F13.3°C 85% 1.1 mph ESE1.8 kmh ESE 2.5 mph4.0 kmh 29.90 in1012.5 mb 0.00 in0.0 mm 0.00 in/hr0.0 mm/hr 0.00 in0.0 mm
02:55 AM 60.7°F15.9°C 56.5°F13.6°C 86% 1.0 mph SE1.6 kmh SE 2.5 mph4.0 kmh 29.90 in1012.5 mb 0.00 in0.0 mm 0.00 in/hr0.0 mm/hr 0.00 in0.0 mm
03:00 AM 60.7°F15.9°C 56.5°F13.6°C 86% 0.4 mph SSE0.6 kmh SSE 1.3 mph2.1 kmh 29.90 in1012.5 mb 0.00 in0.0 mm 0.00 in/hr0.0 mm/hr 0.00 in0.0 mm
03:05 AM 60.8°F16.0°C 56.7°F13.7°C 86% 0.9 mph SSE1.4 kmh SSE 1.6 mph2.6 kmh 29.91 in1012.9 mb 0.00 in0.0 mm 0.00 in/hr0.0 mm/hr 0.00 in0.0 mm
03:10 AM 60.8°F16.0°C 56.7°F13.7°C 86% Calm Calm 1.6 mph2.6 kmh 29.92 in1013.2 mb 0.00 in0.0 mm 0.00 in/hr0.0 mm/hr 0.00 in0.0 mm
03:15 AM 60.8°F16.0°C 56.7°F13.7°C 86% 0.6 mph S1.0 kmh S 0.9 mph1.4 kmh 29.92 in1013.2 mb 0.00 in0.0 mm 0.00 in/hr0.0 mm/hr 0.00 in0.0 mm
03:20 AM 60.8°F16.0°C 56.7°F13.7°C 86% 0.4 mph SSE0.6 kmh SSE 0.9 mph1.4 kmh 29.92 in1013.2 mb 0.00 in0.0 mm 0.00 in/hr0.0 mm/hr 0.00 in0.0 mm
03:25 AM 60.8°F16.0°C 57.0°F13.9°C 87% 0.6 mph SSE1.0 kmh SSE 0.9 mph1.4 kmh 29.93 in1013.5 mb 0.00 in0.0 mm 0.00 in/hr0.0 mm/hr 0.00 in0.0 mm
03:30 AM 60.8°F16.0°C 57.0°F13.9°C 87% 0.7 mph SE1.1 kmh SE 2.7 mph4.3 kmh 29.93 in1013.5 mb 0.00 in0.0 mm 0.00 in/hr0.0 mm/hr 0.00 in0.0 mm
03:35 AM 60.8°F16.0°C 57.0°F13.9°C 87% 1.1 mph SE1.8 kmh SE 2.7 mph4.3 kmh 29.92 in1013.2 mb 0.00 in0.0 mm 0.00 in/hr0.0 mm/hr 0.00 in0.0 mm
03:40 AM 61.0°F16.1°C 57.5°F14.2°C 88% 0.6 mph SW1.0 kmh SW 2.0 mph3.2 kmh 29.92 in1013.2 mb 0.00 in0.0 mm 0.00 in/hr0.0 mm/hr 0.00 in0.0 mm
03:45 AM 61.0°F16.1°C 57.2°F14.0°C 87% 1.0 mph SSE1.6 kmh SSE 2.0 mph3.2 kmh 29.93 in1013.5 mb 0.00 in0.0 mm 0.00 in/hr0.0 mm/hr 0.00 in0.0 mm
03:50 AM 61.2°F16.2°C 57.3°F14.1°C 87% 0.7 mph SE1.1 kmh SE 2.9 mph4.7 kmh 29.92 in1013.2 mb 0.00 in0.0 mm 0.00 in/hr0.0 mm/hr 0.00 in0.0 mm
03:55 AM 61.2°F16.2°C 57.3°F14.1°C 87% 1.3 mph SE2.1 kmh SE 3.1 mph5.0 kmh 29.92 in1013.2 mb 0.00 in0.0 mm 0.00 in/hr0.0 mm/hr 0.00 in0.0 mm
04:00 AM 61.2°F16.2°C 57.3°F14.1°C 87% 2.2 mph SE3.5 kmh SE 3.1 mph5.0 kmh 29.92 in1013.2 mb 0.00 in0.0 mm 0.00 in/hr0.0 mm/hr 0.00 in0.0 mm
04:05 AM 61.2°F16.2°C 57.3°F14.1°C 87% 0.6 mph S1.0 kmh S 2.9 mph4.7 kmh 29.92 in1013.2 mb 0.00 in0.0 mm 0.00 in/hr0.0 mm/hr 0.00 in0.0 mm
04:10 AM 61.2°F16.2°C 57.7°F14.3°C 88% 0.5 mph SE0.8 kmh SE 2.7 mph4.3 kmh 29.93 in1013.5 mb 0.00 in0.0 mm 0.00 in/hr0.0 mm/hr 0.00 in0.0 mm
04:15 AM 61.2°F16.2°C 57.3°F14.1°C 87% 1.3 mph SE2.1 kmh SE 2.7 mph4.3 kmh 29.93 in1013.5 mb 0.00 in0.0 mm 0.00 in/hr0.0 mm/hr 0.00 in0.0 mm
04:20 AM 61.2°F16.2°C 57.3°F14.1°C 87% 0.5 mph SSW0.8 kmh SSW 1.8 mph2.9 kmh 29.92 in1013.2 mb 0.00 in0.0 mm 0.00 in/hr0.0 mm/hr 0.00 in0.0 mm
04:25 AM 61.2°F16.2°C 57.3°F14.1°C 87% 1.2 mph SSE1.9 kmh SSE 2.2 mph3.5 kmh 29.92 in1013.2 mb 0.00 in0.0 mm 0.00 in/hr0.0 mm/hr 0.00 in0.0 mm
04:30 AM 61.2°F16.2°C 57.3°F14.1°C 87% 1.2 mph SE1.9 kmh SE 2.2 mph3.5 kmh 29.93 in1013.5 mb 0.00 in0.0 mm 0.00 in/hr0.0 mm/hr 0.00 in0.0 mm
04:35 AM 61.2°F16.2°C 57.3°F14.1°C 87% 1.5 mph SE2.4 kmh SE 3.1 mph5.0 kmh 29.92 in1013.2 mb 0.00 in0.0 mm 0.00 in/hr0.0 mm/hr 0.00 in0.0 mm
04:40 AM 61.2°F16.2°C 57.3°F14.1°C 87% 0.8 mph SE1.3 kmh SE 3.1 mph5.0 kmh 29.92 in1013.2 mb 0.00 in0.0 mm 0.00 in/hr0.0 mm/hr 0.00 in0.0 mm
04:45 AM 61.4°F16.3°C 57.5°F14.2°C 87% 0.6 mph SE1.0 kmh SE 2.9 mph4.7 kmh 29.92 in1013.2 mb 0.00 in0.0 mm 0.00 in/hr0.0 mm/hr 0.00 in0.0 mm
04:50 AM 61.2°F16.2°C 57.7°F14.3°C 88% 1.1 mph SSE1.8 kmh SSE 1.8 mph2.9 kmh 29.93 in1013.5 mb 0.00 in0.0 mm 0.00 in/hr0.0 mm/hr 0.00 in0.0 mm
04:55 AM 61.2°F16.2°C 57.7°F14.3°C 88% 0.4 mph S0.6 kmh S 1.6 mph2.6 kmh 29.93 in1013.5 mb 0.00 in0.0 mm 0.00 in/hr0.0 mm/hr 0.00 in0.0 mm
05:00 AM 61.2°F16.2°C 57.7°F14.3°C 88% 1.0 mph S1.6 kmh S 2.2 mph3.5 kmh 29.93 in1013.5 mb 0.00 in0.0 mm 0.00 in/hr0.0 mm/hr 0.00 in0.0 mm
05:05 AM 61.2°F16.2°C 58.0°F14.4°C 89% 0.6 mph S1.0 kmh S 2.2 mph3.5 kmh 29.93 in1013.5 mb 0.00 in0.0 mm 0.00 in/hr0.0 mm/hr 0.00 in0.0 mm
05:10 AM 61.2°F16.2°C 57.7°F14.3°C 88% 1.0 mph SE1.6 kmh SE 1.3 mph2.1 kmh 29.93 in1013.5 mb 0.00 in0.0 mm 0.00 in/hr0.0 mm/hr 0.00 in0.0 mm
05:15 AM 61.2°F16.2°C 58.0°F14.4°C 89% 1.0 mph SSE1.6 kmh SSE 1.8 mph2.9 kmh 29.93 in1013.5 mb 0.00 in0.0 mm 0.00 in/hr0.0 mm/hr 0.00 in0.0 mm
05:20 AM 61.2°F16.2°C 58.0°F14.4°C 89% 1.0 mph SE1.6 kmh SE 1.8 mph2.9 kmh 29.93 in1013.5 mb 0.00 in0.0 mm 0.00 in/hr0.0 mm/hr 0.00 in0.0 mm
05:25 AM 61.2°F16.2°C 57.7°F14.3°C 88% 1.2 mph SE1.9 kmh SE 1.8 mph2.9 kmh 29.92 in1013.2 mb 0.00 in0.0 mm 0.00 in/hr0.0 mm/hr 0.00 in0.0 mm
05:30 AM 61.2°F16.2°C 58.0°F14.4°C 89% 1.3 mph E2.1 kmh E 1.8 mph2.9 kmh 29.92 in1013.2 mb 0.00 in0.0 mm 0.00 in/hr0.0 mm/hr 0.00 in0.0 mm
05:35 AM 61.2°F16.2°C 58.0°F14.4°C 89% 0.9 mph SSE1.4 kmh SSE 2.0 mph3.2 kmh 29.92 in1013.2 mb 0.00 in0.0 mm 0.00 in/hr0.0 mm/hr 0.00 in0.0 mm
05:40 AM 61.2°F16.2°C 58.0°F14.4°C 89% 0.9 mph SE1.4 kmh SE 2.0 mph3.2 kmh 29.92 in1013.2 mb 0.00 in0.0 mm 0.00 in/hr0.0 mm/hr 0.00 in0.0 mm
05:45 AM 61.2°F16.2°C 58.0°F14.4°C 89% 0.9 mph SE1.4 kmh SE 2.0 mph3.2 kmh 29.93 in1013.5 mb 0.00 in0.0 mm 0.00 in/hr0.0 mm/hr 0.00 in0.0 mm
05:50 AM 61.2°F16.2°C 58.3°F14.6°C 90% 0.6 mph W1.0 kmh W 1.6 mph2.6 kmh 29.93 in1013.5 mb 0.00 in0.0 mm 0.00 in/hr0.0 mm/hr 0.00 in0.0 mm
05:55 AM 61.4°F16.3°C 58.5°F14.7°C 90% 1.0 mph SSW1.6 kmh SSW 1.1 mph1.8 kmh 29.93 in1013.5 mb 0.00 in0.0 mm 0.00 in/hr0.0 mm/hr 0.00 in0.0 mm
06:00 AM 61.4°F16.3°C 58.5°F14.7°C 90% 0.7 mph SSE1.1 kmh SSE 1.1 mph1.8 kmh 29.94 in1013.9 mb 0.00 in0.0 mm 0.00 in/hr0.0 mm/hr 0.00 in0.0 mm
06:05 AM 61.6°F16.4°C 58.7°F14.8°C 90% 1.6 mph ESE2.6 kmh ESE 2.0 mph3.2 kmh 29.94 in1013.9 mb 0.00 in0.0 mm 0.00 in/hr0.0 mm/hr 0.00 in0.0 mm
06:10 AM 61.6°F16.4°C 58.7°F14.8°C 90% 0.9 mph S1.4 kmh S 2.0 mph3.2 kmh 29.94 in1013.9 mb 0.00 in0.0 mm 0.00 in/hr0.0 mm/hr 0.00 in0.0 mm
06:15 AM 61.6°F16.4°C 58.7°F14.8°C 90% 0.6 mph SE1.0 kmh SE 1.8 mph2.9 kmh 29.94 in1013.9 mb 0.00 in0.0 mm 0.00 in/hr0.0 mm/hr 0.00 in0.0 mm
06:20 AM 61.7°F16.5°C 58.5°F14.7°C 89% 1.1 mph ESE1.8 kmh ESE 1.8 mph2.9 kmh 29.94 in1013.9 mb 0.00 in0.0 mm 0.00 in/hr0.0 mm/hr 0.00 in0.0 mm
06:25 AM 61.9°F16.6°C 58.7°F14.8°C 89% 0.3 mph SE0.5 kmh SE 1.1 mph1.8 kmh 29.94 in1013.9 mb 0.00 in0.0 mm 0.00 in/hr0.0 mm/hr 0.00 in0.0 mm
06:30 AM 61.9°F16.6°C 58.7°F14.8°C 89% 0.5 mph SSE0.8 kmh SSE 1.1 mph1.8 kmh 29.94 in1013.9 mb 0.00 in0.0 mm 0.00 in/hr0.0 mm/hr 0.00 in0.0 mm
06:35 AM 61.9°F16.6°C 58.7°F14.8°C 89% 0.4 mph SE0.6 kmh SE 0.9 mph1.4 kmh 29.95 in1014.2 mb 0.00 in0.0 mm 0.00 in/hr0.0 mm/hr 0.00 in0.0 mm
06:40 AM 62.1°F16.7°C 58.9°F14.9°C 89% Calm Calm 0.9 mph1.4 kmh 29.95 in1014.2 mb 0.00 in0.0 mm 0.00 in/hr0.0 mm/hr 0.00 in0.0 mm
06:45 AM 62.3°F16.8°C 59.0°F15.0°C 89% Calm Calm 0.9 mph1.4 kmh 29.95 in1014.2 mb 0.00 in0.0 mm 0.00 in/hr0.0 mm/hr 0.00 in0.0 mm
06:50 AM 62.5°F16.9°C 59.2°F15.1°C 89% 0.2 mph ESE0.3 kmh ESE 0.9 mph1.4 kmh 29.95 in1014.2 mb 0.00 in0.0 mm 0.00 in/hr0.0 mm/hr 0.00 in0.0 mm
06:55 AM 62.6°F17.0°C 59.4°F15.2°C 89% 0.2 mph SSE0.3 kmh SSE 0.4 mph0.6 kmh 29.95 in1014.2 mb 0.00 in0.0 mm 0.00 in/hr0.0 mm/hr 0.00 in0.0 mm
07:00 AM 63.0°F17.2°C 59.8°F15.4°C 89% 1.1 mph WSW1.8 kmh WSW 1.1 mph1.8 kmh 29.96 in1014.6 mb 0.00 in0.0 mm 0.00 in/hr0.0 mm/hr 0.00 in0.0 mm
07:05 AM 63.0°F17.2°C 59.8°F15.4°C 89% Calm Calm 1.1 mph1.8 kmh 29.96 in1014.6 mb 0.00 in0.0 mm 0.00 in/hr0.0 mm/hr 0.00 in0.0 mm
07:10 AM 63.4°F17.4°C 60.1°F15.6°C 89% 0.9 mph SSE1.4 kmh SSE 1.1 mph1.8 kmh 29.96 in1014.6 mb 0.00 in0.0 mm 0.00 in/hr0.0 mm/hr 0.00 in0.0 mm
07:15 AM 63.7°F17.6°C 60.5°F15.8°C 89% 0.4 mph SSE0.6 kmh SSE 1.1 mph1.8 kmh 29.96 in1014.6 mb 0.00 in0.0 mm 0.00 in/hr0.0 mm/hr 0.00 in0.0 mm
07:20 AM 63.7°F17.6°C 60.1°F15.6°C 88% 0.8 mph SE1.3 kmh SE 1.1 mph1.8 kmh 29.96 in1014.6 mb 0.00 in0.0 mm 0.00 in/hr0.0 mm/hr 0.00 in0.0 mm
07:25 AM 63.9°F17.7°C 60.3°F15.7°C 88% 0.4 mph SE0.6 kmh SE 0.9 mph1.4 kmh 29.97 in1014.9 mb 0.00 in0.0 mm 0.00 in/hr0.0 mm/hr 0.00 in0.0 mm
07:30 AM 64.3°F17.9°C 60.7°F15.9°C 88% 0.8 mph S1.3 kmh S 0.9 mph1.4 kmh 29.97 in1014.9 mb 0.00 in0.0 mm 0.00 in/hr0.0 mm/hr 0.00 in0.0 mm
07:35 AM 64.4°F18.0°C 60.8°F16.0°C 88% 0.4 mph ESE0.6 kmh ESE 1.1 mph1.8 kmh 29.97 in1014.9 mb 0.00 in0.0 mm 0.00 in/hr0.0 mm/hr 0.00 in0.0 mm
07:40 AM 64.6°F18.1°C 60.7°F15.9°C 87% 0.8 mph SE1.3 kmh SE 1.8 mph2.9 kmh 29.97 in1014.9 mb 0.00 in0.0 mm 0.00 in/hr0.0 mm/hr 0.00 in0.0 mm
07:45 AM 64.8°F18.2°C 60.8°F16.0°C 87% 0.4 mph SW0.6 kmh SW 1.8 mph2.9 kmh 29.97 in1014.9 mb 0.00 in0.0 mm 0.00 in/hr0.0 mm/hr 0.00 in0.0 mm
07:50 AM 65.2°F18.4°C 61.6°F16.4°C 88% 0.6 mph S1.0 kmh S 1.1 mph1.8 kmh 29.97 in1014.9 mb 0.00 in0.0 mm 0.00 in/hr0.0 mm/hr 0.00 in0.0 mm
07:55 AM 65.9°F18.8°C 62.2°F16.8°C 88% 0.6 mph ESE1.0 kmh ESE 2.0 mph3.2 kmh 29.97 in1014.9 mb 0.00 in0.0 mm 0.00 in/hr0.0 mm/hr 0.00 in0.0 mm
08:00 AM 66.1°F18.9°C 62.0°F16.7°C 87% 1.6 mph SE2.6 kmh SE 4.0 mph6.4 kmh 29.98 in1015.2 mb 0.00 in0.0 mm 0.00 in/hr0.0 mm/hr 0.00 in0.0 mm
08:05 AM 66.1°F18.9°C 62.0°F16.7°C 87% 0.9 mph S1.4 kmh S 4.0 mph6.4 kmh 29.97 in1014.9 mb 0.00 in0.0 mm 0.00 in/hr0.0 mm/hr 0.00 in0.0 mm
08:10 AM 66.2°F19.0°C 62.2°F16.8°C 87% 0.7 mph SSE1.1 kmh SSE 1.6 mph2.6 kmh 29.98 in1015.2 mb 0.00 in0.0 mm 0.00 in/hr0.0 mm/hr 0.00 in0.0 mm
08:15 AM 66.2°F19.0°C 62.2°F16.8°C 87% 0.4 mph W0.6 kmh W 1.6 mph2.6 kmh 29.98 in1015.2 mb 0.00 in0.0 mm 0.00 in/hr0.0 mm/hr 0.00 in0.0 mm
08:20 AM 66.2°F19.0°C 61.9°F16.6°C 86% 0.8 mph WSW1.3 kmh WSW 1.3 mph2.1 kmh 29.98 in1015.2 mb 0.00 in0.0 mm 0.00 in/hr0.0 mm/hr 0.00 in0.0 mm
08:25 AM 66.6°F19.2°C 62.6°F17.0°C 87% 0.4 mph NNW0.6 kmh NNW 1.3 mph2.1 kmh 29.98 in1015.2 mb 0.00 in0.0 mm 0.00 in/hr0.0 mm/hr 0.00 in0.0 mm
08:30 AM 67.1°F19.5°C 62.8°F17.1°C 86% 0.9 mph W1.4 kmh W 2.9 mph4.7 kmh 29.98 in1015.2 mb 0.00 in0.0 mm 0.00 in/hr0.0 mm/hr 0.00 in0.0 mm
08:35 AM 67.3°F19.6°C 63.0°F17.2°C 86% 0.3 mph SSW0.5 kmh SSW 2.9 mph4.7 kmh 29.98 in1015.2 mb 0.00 in0.0 mm 0.00 in/hr0.0 mm/hr 0.00 in0.0 mm
08:40 AM 67.9°F19.9°C 63.2°F17.3°C 85% 1.4 mph WSW2.3 kmh WSW 2.0 mph3.2 kmh 29.98 in1015.2 mb 0.00 in0.0 mm 0.00 in/hr0.0 mm/hr 0.00 in0.0 mm
08:45 AM 68.2°F20.1°C 63.6°F17.6°C 85% 1.4 mph SW2.3 kmh SW 2.5 mph4.0 kmh 29.98 in1015.2 mb 0.00 in0.0 mm 0.00 in/hr0.0 mm/hr 0.00 in0.0 mm
08:50 AM 68.8°F20.4°C 64.1°F17.8°C 85% 1.7 mph S2.7 kmh S 3.1 mph5.0 kmh 29.98 in1015.2 mb 0.00 in0.0 mm 0.00 in/hr0.0 mm/hr 0.00 in0.0 mm
08:55 AM 69.7°F20.9°C 64.3°F17.9°C 83% 1.9 mph WSW3.1 kmh WSW 3.1 mph5.0 kmh 29.97 in1014.9 mb 0.00 in0.0 mm 0.00 in/hr0.0 mm/hr 0.00 in0.0 mm
09:00 AM 69.7°F20.9°C 63.9°F17.7°C 82% 0.8 mph W1.3 kmh W 2.5 mph4.0 kmh 29.98 in1015.2 mb 0.00 in0.0 mm 0.00 in/hr0.0 mm/hr 0.00 in0.0 mm
09:05 AM 69.8°F21.0°C 63.4°F17.4°C 80% 2.1 mph WSW3.4 kmh WSW 4.7 mph7.6 kmh 29.98 in1015.2 mb 0.00 in0.0 mm 0.00 in/hr0.0 mm/hr 0.00 in0.0 mm
09:10 AM 70.4°F21.3°C 64.6°F18.1°C 82% 1.2 mph WSW1.9 kmh WSW 4.7 mph7.6 kmh 29.98 in1015.2 mb 0.00 in0.0 mm 0.00 in/hr0.0 mm/hr 0.00 in0.0 mm
09:15 AM 71.1°F21.7°C 65.0°F18.3°C 81% 0.9 mph SW1.4 kmh SW 2.0 mph3.2 kmh 29.98 in1015.2 mb 0.00 in0.0 mm 0.00 in/hr0.0 mm/hr 0.00 in0.0 mm
09:20 AM 71.5°F21.9°C 65.0°F18.3°C 80% 1.3 mph W2.1 kmh W 1.8 mph2.9 kmh 29.98 in1015.2 mb 0.00 in0.0 mm 0.00 in/hr0.0 mm/hr 0.00 in0.0 mm
09:25 AM 71.3°F21.8°C 64.5°F18.1°C 79% 0.9 mph W1.4 kmh W 1.8 mph2.9 kmh 29.98 in1015.2 mb 0.00 in0.0 mm 0.00 in/hr0.0 mm/hr 0.00 in0.0 mm
09:30 AM 71.3°F21.8°C 64.5°F18.1°C 79% 1.1 mph W1.8 kmh W 3.6 mph5.8 kmh 29.98 in1015.2 mb 0.00 in0.0 mm 0.00 in/hr0.0 mm/hr 0.00 in0.0 mm
09:35 AM 70.6°F21.4°C 63.7°F17.6°C 79% 1.1 mph NW1.8 kmh NW 3.6 mph5.8 kmh 29.98 in1015.2 mb 0.00 in0.0 mm 0.00 in/hr0.0 mm/hr 0.00 in0.0 mm
09:40 AM 70.2°F21.2°C 63.7°F17.6°C 80% 0.3 mph W0.5 kmh W 1.8 mph2.9 kmh 29.98 in1015.2 mb 0.00 in0.0 mm 0.00 in/hr0.0 mm/hr 0.00 in0.0 mm
09:45 AM 70.4°F21.3°C 64.3°F17.9°C 81% 1.7 mph NW2.7 kmh NW 3.1 mph5.0 kmh 29.98 in1015.2 mb 0.00 in0.0 mm 0.00 in/hr0.0 mm/hr 0.00 in0.0 mm
09:50 AM 70.9°F21.6°C 64.1°F17.8°C 79% 0.8 mph W1.3 kmh W 3.1 mph5.0 kmh 29.98 in1015.2 mb 0.00 in0.0 mm 0.00 in/hr0.0 mm/hr 0.00 in0.0 mm
09:55 AM 71.6°F22.0°C 64.5°F18.1°C 78% 2.6 mph NW4.2 kmh NW 4.9 mph7.9 kmh 29.98 in1015.2 mb 0.00 in0.0 mm 0.00 in/hr0.0 mm/hr 0.00 in0.0 mm
10:00 AM 71.8°F22.1°C 64.2°F17.9°C 77% 2.6 mph NW4.2 kmh NW 4.9 mph7.9 kmh 29.98 in1015.2 mb 0.00 in0.0 mm 0.00 in/hr0.0 mm/hr 0.00 in0.0 mm
10:05 AM 72.4°F22.4°C 64.7°F18.2°C 77% 1.4 mph WSW2.3 kmh WSW 4.0 mph6.4 kmh 29.97 in1014.9 mb 0.00 in0.0 mm 0.00 in/hr0.0 mm/hr 0.00 in0.0 mm
10:10 AM 73.1°F22.8°C 65.4°F18.6°C 77% 0.8 mph WSW1.3 kmh WSW 2.5 mph4.0 kmh 29.97 in1014.9 mb 0.00 in0.0 mm 0.00 in/hr0.0 mm/hr 0.00 in0.0 mm
10:15 AM 73.3°F22.9°C 65.3°F18.5°C 76% 1.6 mph WNW2.6 kmh WNW 3.4 mph5.5 kmh 29.97 in1014.9 mb 0.00 in0.0 mm 0.00 in/hr0.0 mm/hr 0.00 in0.0 mm
10:20 AM 73.8°F23.2°C 65.8°F18.8°C 76% 1.0 mph SE1.6 kmh SE 3.4 mph5.5 kmh 29.97 in1014.9 mb 0.00 in0.0 mm 0.00 in/hr0.0 mm/hr 0.00 in0.0 mm
10:25 AM 74.5°F23.6°C 66.9°F19.4°C 77% 2.2 mph SE3.5 kmh SE 3.8 mph6.1 kmh 29.97 in1014.9 mb 0.00 in0.0 mm 0.00 in/hr0.0 mm/hr 0.00 in0.0 mm
10:30 AM 75.1°F23.9°C 66.6°F19.2°C 75% 1.6 mph SSE2.6 kmh SSE 3.8 mph6.1 kmh 29.97 in1014.9 mb 0.00 in0.0 mm 0.00 in/hr0.0 mm/hr 0.00 in0.0 mm
10:35 AM 75.4°F24.1°C 67.0°F19.4°C 75% 2.4 mph S3.9 kmh S 2.9 mph4.7 kmh 29.97 in1014.9 mb 0.00 in0.0 mm 0.00 in/hr0.0 mm/hr 0.00 in0.0 mm
10:40 AM 75.8°F24.3°C 66.9°F19.4°C 74% 1.4 mph SSW2.3 kmh SSW 2.9 mph4.7 kmh 29.97 in1014.9 mb 0.00 in0.0 mm 0.00 in/hr0.0 mm/hr 0.00 in0.0 mm
10:45 AM 75.8°F24.3°C 66.5°F19.2°C 73% 1.7 mph SSE2.7 kmh SSE 2.9 mph4.7 kmh 29.96 in1014.6 mb 0.00 in0.0 mm 0.00 in/hr0.0 mm/hr 0.00 in0.0 mm
10:50 AM 75.8°F24.3°C 66.5°F19.2°C 73% 2.3 mph WSW3.7 kmh WSW 3.6 mph5.8 kmh 29.96 in1014.6 mb 0.00 in0.0 mm 0.00 in/hr0.0 mm/hr 0.00 in0.0 mm
10:55 AM 76.0°F24.4°C 66.3°F19.1°C 72% 1.4 mph WNW2.3 kmh WNW 3.6 mph5.8 kmh 29.96 in1014.6 mb 0.00 in0.0 mm 0.00 in/hr0.0 mm/hr 0.00 in0.0 mm
11:00 AM 76.0°F24.4°C 65.5°F18.6°C 70% 1.1 mph WNW1.8 kmh WNW 2.7 mph4.3 kmh 29.96 in1014.6 mb 0.00 in0.0 mm 0.00 in/hr0.0 mm/hr 0.00 in0.0 mm
11:05 AM 76.0°F24.4°C 65.9°F18.8°C 71% 1.7 mph W2.7 kmh W 4.3 mph6.9 kmh 29.96 in1014.6 mb 0.00 in0.0 mm 0.00 in/hr0.0 mm/hr 0.00 in0.0 mm
11:10 AM 76.3°F24.6°C 65.9°F18.8°C 70% 1.0 mph NW1.6 kmh NW 4.3 mph6.9 kmh 29.95 in1014.2 mb 0.00 in0.0 mm 0.00 in/hr0.0 mm/hr 0.00 in0.0 mm
11:15 AM 76.0°F24.4°C 65.5°F18.6°C 70% 2.3 mph W3.7 kmh W 4.3 mph6.9 kmh 29.95 in1014.2 mb 0.00 in0.0 mm 0.00 in/hr0.0 mm/hr 0.00 in0.0 mm
11:20 AM 76.0°F24.4°C 66.3°F19.1°C 72% 1.7 mph WSW2.7 kmh WSW 3.8 mph6.1 kmh 29.95 in1014.2 mb 0.00 in0.0 mm 0.00 in/hr0.0 mm/hr 0.00 in0.0 mm
11:25 AM 77.0°F25.0°C 67.0°F19.4°C 71% 1.1 mph W1.8 kmh W 3.1 mph5.0 kmh 29.95 in1014.2 mb 0.00 in0.0 mm 0.00 in/hr0.0 mm/hr 0.00 in0.0 mm
11:30 AM 77.2°F25.1°C 67.1°F19.5°C 71% 1.0 mph WSW1.6 kmh WSW 1.8 mph2.9 kmh 29.96 in1014.6 mb 0.00 in0.0 mm 0.00 in/hr0.0 mm/hr 0.00 in0.0 mm
11:35 AM 77.8°F25.4°C 66.8°F19.3°C 69% 1.3 mph WNW2.1 kmh WNW 2.9 mph4.7 kmh 29.95 in1014.2 mb 0.00 in0.0 mm 0.00 in/hr0.0 mm/hr 0.00 in0.0 mm
11:40 AM 77.8°F25.4°C 66.8°F19.3°C 69% 2.6 mph WSW4.2 kmh WSW 3.4 mph5.5 kmh 29.95 in1014.2 mb 0.00 in0.0 mm 0.00 in/hr0.0 mm/hr 0.00 in0.0 mm
11:45 AM 77.4°F25.2°C 66.5°F19.2°C 69% 2.9 mph SE4.7 kmh SE 4.0 mph6.4 kmh 29.95 in1014.2 mb 0.00 in0.0 mm 0.00 in/hr0.0 mm/hr 0.00 in0.0 mm
11:50 AM 77.8°F25.4°C 66.8°F19.3°C 69% 2.3 mph W3.7 kmh W 4.0 mph6.4 kmh 29.95 in1014.2 mb 0.00 in0.0 mm 0.00 in/hr0.0 mm/hr 0.00 in0.0 mm
11:55 AM 78.5°F25.8°C 67.1°F19.5°C 68% 1.7 mph NW2.7 kmh NW 3.4 mph5.5 kmh 29.95 in1014.2 mb 0.00 in0.0 mm 0.00 in/hr0.0 mm/hr 0.00 in0.0 mm
12:00 PM 79.2°F26.2°C 67.7°F19.8°C 68% 0.9 mph SSW1.4 kmh SSW 2.5 mph4.0 kmh 29.95 in1014.2 mb 0.00 in0.0 mm 0.00 in/hr0.0 mm/hr 0.00 in0.0 mm
12:05 PM 79.7°F26.5°C 66.5°F19.2°C 64% 1.4 mph WSW2.3 kmh WSW 3.4 mph5.5 kmh 29.95 in1014.2 mb 0.00 in0.0 mm 0.00 in/hr0.0 mm/hr 0.00 in0.0 mm
12:10 PM 79.6°F26.4°C 67.1°F19.5°C 66% 1.0 mph WSW1.6 kmh WSW 3.4 mph5.5 kmh 29.95 in1014.2 mb 0.00 in0.0 mm 0.00 in/hr0.0 mm/hr 0.00 in0.0 mm
12:15 PM 79.6°F26.4°C 67.1°F19.5°C 66% 2.3 mph W3.7 kmh W 3.1 mph5.0 kmh 29.95 in1014.2 mb 0.00 in0.0 mm 0.00 in/hr0.0 mm/hr 0.00 in0.0 mm
12:20 PM 79.6°F26.4°C 67.1°F19.5°C 66% 1.2 mph SW1.9 kmh SW 3.1 mph5.0 kmh 29.95 in1014.2 mb 0.00 in0.0 mm 0.00 in/hr0.0 mm/hr 0.00 in0.0 mm
12:25 PM 79.2°F26.2°C 66.9°F19.4°C 66% 1.7 mph SSE2.7 kmh SSE 3.4 mph5.5 kmh 29.95 in1014.2 mb 0.00 in0.0 mm 0.00 in/hr0.0 mm/hr 0.00 in0.0 mm
12:30 PM 79.6°F26.4°C 67.1°F19.5°C 66% 0.9 mph SE1.4 kmh SE 3.4 mph5.5 kmh 29.94 in1013.9 mb 0.00 in0.0 mm 0.00 in/hr0.0 mm/hr 0.00 in0.0 mm
12:35 PM 79.9°F26.6°C 67.1°F19.5°C 65% 1.2 mph SW1.9 kmh SW 1.6 mph2.6 kmh 29.94 in1013.9 mb 0.00 in0.0 mm 0.00 in/hr0.0 mm/hr 0.00 in0.0 mm
12:40 PM 80.1°F26.7°C 67.7°F19.8°C 66% 0.7 mph S1.1 kmh S 2.5 mph4.0 kmh 29.94 in1013.9 mb 0.00 in0.0 mm 0.00 in/hr0.0 mm/hr 0.00 in0.0 mm
12:45 PM 81.0°F27.2°C 68.6°F20.3°C 66% 1.6 mph S2.6 kmh S 2.9 mph4.7 kmh 29.94 in1013.9 mb 0.00 in0.0 mm 0.00 in/hr0.0 mm/hr 0.00 in0.0 mm
12:50 PM 81.2°F27.3°C 67.3°F19.6°C 63% 1.5 mph S2.4 kmh S 2.9 mph4.7 kmh 29.94 in1013.9 mb 0.00 in0.0 mm 0.00 in/hr0.0 mm/hr 0.00 in0.0 mm
12:55 PM 81.5°F27.5°C 68.6°F20.3°C 65% 0.9 mph S1.4 kmh S 4.3 mph6.9 kmh 29.94 in1013.9 mb 0.00 in0.0 mm 0.00 in/hr0.0 mm/hr 0.00 in0.0 mm
01:00 PM 82.1°F27.8°C 67.7°F19.8°C 62% 2.3 mph WSW3.7 kmh WSW 4.3 mph6.9 kmh 29.94 in1013.9 mb 0.00 in0.0 mm 0.00 in/hr0.0 mm/hr 0.00 in0.0 mm
01:05 PM 82.4°F28.0°C 68.0°F20.0°C 62% 1.2 mph WSW1.9 kmh WSW 4.0 mph6.4 kmh 29.94 in1013.9 mb 0.00 in0.0 mm 0.00 in/hr0.0 mm/hr 0.00 in0.0 mm
01:10 PM 83.2°F28.4°C 69.2°F20.7°C 63% 1.7 mph SW2.7 kmh SW 2.2 mph3.5 kmh 29.94 in1013.9 mb 0.00 in0.0 mm 0.00 in/hr0.0 mm/hr 0.00 in0.0 mm
01:15 PM 83.2°F28.4°C 67.3°F19.6°C 59% 2.2 mph W3.5 kmh W 2.7 mph4.3 kmh 29.94 in1013.9 mb 0.00 in0.0 mm 0.00 in/hr0.0 mm/hr 0.00 in0.0 mm
01:20 PM 82.1°F27.8°C 66.8°F19.3°C 60% 0.4 mph W0.6 kmh W 2.7 mph4.3 kmh 29.94 in1013.9 mb 0.00 in0.0 mm 0.00 in/hr0.0 mm/hr 0.00 in0.0 mm
01:25 PM 82.6°F28.1°C 67.8°F19.9°C 61% 1.1 mph W1.8 kmh W 5.4 mph8.7 kmh 29.94 in1013.9 mb 0.00 in0.0 mm 0.00 in/hr0.0 mm/hr 0.00 in0.0 mm
01:30 PM 83.0°F28.3°C 66.6°F19.2°C 58% 1.4 mph E2.3 kmh E 5.4 mph8.7 kmh 29.94 in1013.9 mb 0.00 in0.0 mm 0.00 in/hr0.0 mm/hr 0.00 in0.0 mm
01:35 PM 82.4°F28.0°C 66.6°F19.2°C 59% 1.2 mph W1.9 kmh W 4.0 mph6.4 kmh 29.94 in1013.9 mb 0.00 in0.0 mm 0.00 in/hr0.0 mm/hr 0.00 in0.0 mm
01:40 PM 83.0°F28.3°C 67.1°F19.5°C 59% 2.0 mph W3.2 kmh W 3.4 mph5.5 kmh 29.93 in1013.5 mb 0.00 in0.0 mm 0.00 in/hr0.0 mm/hr 0.00 in0.0 mm
01:45 PM 83.0°F28.3°C 67.1°F19.5°C 59% 1.6 mph S2.6 kmh S 3.6 mph5.8 kmh 29.93 in1013.5 mb 0.00 in0.0 mm 0.00 in/hr0.0 mm/hr 0.00 in0.0 mm
01:50 PM 82.8°F28.2°C 66.0°F18.9°C 57% 1.4 mph NW2.3 kmh NW 4.0 mph6.4 kmh 29.94 in1013.9 mb 0.00 in0.0 mm 0.00 in/hr0.0 mm/hr 0.00 in0.0 mm
01:56 PM 83.2°F28.4°C 66.8°F19.3°C 58% 1.5 mph NW2.4 kmh NW 4.0 mph6.4 kmh 29.94 in1013.9 mb 0.00 in0.0 mm 0.00 in/hr0.0 mm/hr 0.00 in0.0 mm
02:01 PM 83.9°F28.8°C 68.0°F20.0°C 59% 1.2 mph SSE1.9 kmh SSE 3.8 mph6.1 kmh 29.93 in1013.5 mb 0.00 in0.0 mm 0.00 in/hr0.0 mm/hr 0.00 in0.0 mm
02:06 PM 84.4°F29.1°C 67.5°F19.7°C 57% 2.5 mph WSW4.0 kmh WSW 3.4 mph5.5 kmh 29.93 in1013.5 mb 0.00 in0.0 mm 0.00 in/hr0.0 mm/hr 0.00 in0.0 mm
02:10 PM 84.1°F28.9°C 66.2°F19.0°C 55% 3.9 mph NW6.3 kmh NW 7.6 mph12.2 kmh 29.93 in1013.5 mb 0.00 in0.0 mm 0.00 in/hr0.0 mm/hr 0.00 in0.0 mm
02:15 PM 83.2°F28.4°C 66.3°F19.1°C 57% 1.7 mph NW2.7 kmh NW 7.6 mph12.2 kmh 29.94 in1013.9 mb 0.00 in0.0 mm 0.00 in/hr0.0 mm/hr 0.00 in0.0 mm
02:20 PM 83.2°F28.4°C 65.8°F18.8°C 56% 0.9 mph NNW1.4 kmh NNW 4.3 mph6.9 kmh 29.93 in1013.5 mb 0.00 in0.0 mm 0.00 in/hr0.0 mm/hr 0.00 in0.0 mm
02:25 PM 82.6°F28.1°C 65.8°F18.8°C 57% 2.8 mph WNW4.5 kmh WNW 4.3 mph6.9 kmh 29.93 in1013.5 mb 0.00 in0.0 mm 0.00 in/hr0.0 mm/hr 0.00 in0.0 mm
02:31 PM 82.8°F28.2°C 66.0°F18.9°C 57% 3.2 mph WNW5.1 kmh WNW 4.3 mph6.9 kmh 29.93 in1013.5 mb 0.00 in0.0 mm 0.00 in/hr0.0 mm/hr 0.00 in0.0 mm
02:35 PM 83.5°F28.6°C 66.7°F19.3°C 57% 2.1 mph W3.4 kmh W 4.0 mph6.4 kmh 29.93 in1013.5 mb 0.00 in0.0 mm 0.00 in/hr0.0 mm/hr 0.00 in0.0 mm
02:41 PM 83.3°F28.5°C 66.0°F18.9°C 56% 1.3 mph W2.1 kmh W 3.1 mph5.0 kmh 29.93 in1013.5 mb 0.00 in0.0 mm 0.00 in/hr0.0 mm/hr 0.00 in0.0 mm
02:46 PM 84.2°F29.0°C 67.4°F19.7°C 57% 2.7 mph NW4.3 kmh NW 5.6 mph9.0 kmh 29.93 in1013.5 mb 0.00 in0.0 mm 0.00 in/hr0.0 mm/hr 0.00 in0.0 mm
02:50 PM 84.6°F29.2°C 67.1°F19.5°C 56% 3.0 mph W4.8 kmh W 5.6 mph9.0 kmh 29.93 in1013.5 mb 0.00 in0.0 mm 0.00 in/hr0.0 mm/hr 0.00 in0.0 mm
02:56 PM 84.8°F29.3°C 66.8°F19.3°C 55% 4.3 mph W6.9 kmh W 6.9 mph11.1 kmh 29.93 in1013.5 mb 0.00 in0.0 mm 0.00 in/hr0.0 mm/hr 0.00 in0.0 mm
03:01 PM 84.6°F29.2°C 66.7°F19.3°C 55% 1.8 mph WSW2.9 kmh WSW 6.9 mph11.1 kmh 29.93 in1013.5 mb 0.00 in0.0 mm 0.00 in/hr0.0 mm/hr 0.00 in0.0 mm
03:06 PM 84.6°F29.2°C 66.7°F19.3°C 55% 2.5 mph WSW4.0 kmh WSW 3.4 mph5.5 kmh 29.92 in1013.2 mb 0.00 in0.0 mm 0.00 in/hr0.0 mm/hr 0.00 in0.0 mm
03:10 PM 84.8°F29.3°C 66.8°F19.3°C 55% 1.7 mph W2.7 kmh W 3.4 mph5.5 kmh 29.93 in1013.5 mb 0.00 in0.0 mm 0.00 in/hr0.0 mm/hr 0.00 in0.0 mm
03:16 PM 85.3°F29.6°C 67.9°F19.9°C 56% 1.4 mph WSW2.3 kmh WSW 5.8 mph9.3 kmh 29.92 in1013.2 mb 0.00 in0.0 mm 0.00 in/hr0.0 mm/hr 0.00 in0.0 mm
03:21 PM 86.0°F30.0°C 68.0°F20.0°C 55% 1.5 mph SW2.4 kmh SW 5.8 mph9.3 kmh 29.92 in1013.2 mb 0.00 in0.0 mm 0.00 in/hr0.0 mm/hr 0.00 in0.0 mm
03:26 PM 85.7°F29.8°C 66.6°F19.2°C 53% 1.3 mph W2.1 kmh W 3.4 mph5.5 kmh 29.92 in1013.2 mb 0.00 in0.0 mm 0.00 in/hr0.0 mm/hr 0.00 in0.0 mm
03:30 PM 85.7°F29.8°C 67.2°F19.6°C 54% 1.9 mph W3.1 kmh W 2.7 mph4.3 kmh 29.92 in1013.2 mb 0.00 in0.0 mm 0.00 in/hr0.0 mm/hr 0.00 in0.0 mm
03:36 PM 84.8°F29.3°C 66.3°F19.1°C 54% 1.7 mph NW2.7 kmh NW 2.9 mph4.7 kmh 29.92 in1013.2 mb 0.00 in0.0 mm 0.00 in/hr0.0 mm/hr 0.00 in0.0 mm
03:41 PM 84.6°F29.2°C 65.6°F18.7°C 53% 3.0 mph WSW4.8 kmh WSW 6.7 mph10.8 kmh 29.93 in1013.5 mb 0.00 in0.0 mm 0.00 in/hr0.0 mm/hr 0.00 in0.0 mm
03:46 PM 84.8°F29.3°C 66.8°F19.3°C 55% 2.0 mph WSW3.2 kmh WSW 6.7 mph10.8 kmh 29.93 in1013.5 mb 0.00 in0.0 mm 0.00 in/hr0.0 mm/hr 0.00 in0.0 mm
03:51 PM 85.1°F29.5°C 65.6°F18.7°C 52% 2.8 mph W4.5 kmh W 6.0 mph9.7 kmh 29.93 in1013.5 mb 0.00 in0.0 mm 0.00 in/hr0.0 mm/hr 0.00 in0.0 mm
03:56 PM 85.0°F29.4°C 65.4°F18.6°C 52% 1.5 mph NW2.4 kmh NW 6.0 mph9.7 kmh 29.93 in1013.5 mb 0.00 in0.0 mm 0.00 in/hr0.0 mm/hr 0.00 in0.0 mm
04:01 PM 84.4°F29.1°C 65.4°F18.6°C 53% 1.4 mph NW2.3 kmh NW 3.1 mph5.0 kmh 29.92 in1013.2 mb 0.00 in0.0 mm 0.00 in/hr0.0 mm/hr 0.00 in0.0 mm
04:06 PM 84.8°F29.3°C 64.7°F18.2°C 51% 1.8 mph NW2.9 kmh NW 4.3 mph6.9 kmh 29.93 in1013.5 mb 0.00 in0.0 mm 0.00 in/hr0.0 mm/hr 0.00 in0.0 mm
04:11 PM 85.0°F29.4°C 65.4°F18.6°C 52% 2.6 mph WSW4.2 kmh WSW 4.3 mph6.9 kmh 29.92 in1013.2 mb 0.00 in0.0 mm 0.00 in/hr0.0 mm/hr 0.00 in0.0 mm
04:16 PM 85.3°F29.6°C 65.7°F18.7°C 52% 2.1 mph SE3.4 kmh SE 4.0 mph6.4 kmh 29.92 in1013.2 mb 0.00 in0.0 mm 0.00 in/hr0.0 mm/hr 0.00 in0.0 mm
04:21 PM 85.5°F29.7°C 66.4°F19.1°C 53% 1.8 mph WSW2.9 kmh WSW 4.0 mph6.4 kmh 29.92 in1013.2 mb 0.00 in0.0 mm 0.00 in/hr0.0 mm/hr 0.00 in0.0 mm
04:26 PM 86.2°F30.1°C 67.6°F19.8°C 54% 2.3 mph S3.7 kmh S 3.4 mph5.5 kmh 29.92 in1013.2 mb 0.00 in0.0 mm 0.00 in/hr0.0 mm/hr 0.00 in0.0 mm
04:31 PM 86.8°F30.4°C 66.0°F18.9°C 50% 1.5 mph WSW2.4 kmh WSW 4.0 mph6.4 kmh 29.92 in1013.2 mb 0.00 in0.0 mm 0.00 in/hr0.0 mm/hr 0.00 in0.0 mm
04:36 PM 86.4°F30.2°C 64.5°F18.1°C 48% 1.3 mph NW2.1 kmh NW 4.0 mph6.4 kmh 29.92 in1013.2 mb 0.00 in0.0 mm 0.00 in/hr0.0 mm/hr 0.00 in0.0 mm
04:41 PM 85.5°F29.7°C 63.6°F17.6°C 48% 4.4 mph NNW7.1 kmh NNW 6.9 mph11.1 kmh 29.92 in1013.2 mb 0.00 in0.0 mm 0.00 in/hr0.0 mm/hr 0.00 in0.0 mm
04:46 PM 84.8°F29.3°C 63.5°F17.5°C 49% 4.4 mph NW7.1 kmh NW 6.9 mph11.1 kmh 29.92 in1013.2 mb 0.00 in0.0 mm 0.00 in/hr0.0 mm/hr 0.00 in0.0 mm
04:51 PM 84.8°F29.3°C 64.2°F17.9°C 50% 3.7 mph W6.0 kmh W 7.6 mph12.2 kmh 29.91 in1012.9 mb 0.00 in0.0 mm 0.00 in/hr0.0 mm/hr 0.00 in0.0 mm
04:56 PM 85.0°F29.4°C 64.4°F18.0°C 50% 2.3 mph WNW3.7 kmh WNW 7.6 mph12.2 kmh 29.91 in1012.9 mb 0.00 in0.0 mm 0.00 in/hr0.0 mm/hr 0.00 in0.0 mm
05:01 PM 85.3°F29.6°C 65.3°F18.5°C 51% 1.5 mph SSE2.4 kmh SSE 4.0 mph6.4 kmh 29.91 in1012.9 mb 0.00 in0.0 mm 0.00 in/hr0.0 mm/hr 0.00 in0.0 mm
05:06 PM 85.0°F29.4°C 63.7°F17.6°C 49% 3.0 mph W4.8 kmh W 4.7 mph7.6 kmh 29.91 in1012.9 mb 0.00 in0.0 mm 0.00 in/hr0.0 mm/hr 0.00 in0.0 mm
05:11 PM 84.8°F29.3°C 64.2°F17.9°C 50% 1.9 mph WNW3.1 kmh WNW 4.7 mph7.6 kmh 29.91 in1012.9 mb 0.00 in0.0 mm 0.00 in/hr0.0 mm/hr 0.00 in0.0 mm
05:16 PM 85.0°F29.4°C 64.9°F18.3°C 51% 1.4 mph WSW2.3 kmh WSW 3.4 mph5.5 kmh 29.90 in1012.5 mb 0.00 in0.0 mm 0.00 in/hr0.0 mm/hr 0.00 in0.0 mm
05:21 PM 85.1°F29.5°C 65.1°F18.4°C 51% 0.7 mph SW1.1 kmh SW 2.9 mph4.7 kmh 29.91 in1012.9 mb 0.00 in0.0 mm 0.00 in/hr0.0 mm/hr 0.00 in0.0 mm
05:26 PM 85.3°F29.6°C 65.3°F18.5°C 51% 2.2 mph SSE3.5 kmh SSE 2.5 mph4.0 kmh 29.91 in1012.9 mb 0.00 in0.0 mm 0.00 in/hr0.0 mm/hr 0.00 in0.0 mm
05:31 PM 85.0°F29.4°C 64.9°F18.3°C 51% 1.2 mph WSW1.9 kmh WSW 2.7 mph4.3 kmh 29.91 in1012.9 mb 0.00 in0.0 mm 0.00 in/hr0.0 mm/hr 0.00 in0.0 mm
05:36 PM 84.4°F29.1°C 64.5°F18.1°C 51% 2.3 mph S3.7 kmh S 4.7 mph7.6 kmh 29.91 in1012.9 mb 0.00 in0.0 mm 0.00 in/hr0.0 mm/hr 0.00 in0.0 mm
05:41 PM 84.4°F29.1°C 64.5°F18.1°C 51% 3.5 mph SE5.6 kmh SE 4.7 mph7.6 kmh 29.91 in1012.9 mb 0.00 in0.0 mm 0.00 in/hr0.0 mm/hr 0.00 in0.0 mm
05:46 PM 84.2°F29.0°C 64.3°F17.9°C 51% 1.9 mph SSW3.1 kmh SSW 4.7 mph7.6 kmh 29.91 in1012.9 mb 0.00 in0.0 mm 0.00 in/hr0.0 mm/hr 0.00 in0.0 mm
05:51 PM 83.9°F28.8°C 63.9°F17.7°C 51% 1.6 mph WSW2.6 kmh WSW 2.5 mph4.0 kmh 29.91 in1012.9 mb 0.00 in0.0 mm 0.00 in/hr0.0 mm/hr 0.00 in0.0 mm
05:56 PM 83.3°F28.5°C 63.9°F17.7°C 52% 1.9 mph WNW3.1 kmh WNW 2.5 mph4.0 kmh 29.91 in1012.9 mb 0.00 in0.0 mm 0.00 in/hr0.0 mm/hr 0.00 in0.0 mm
06:01 PM 83.2°F28.4°C 63.7°F17.6°C 52% 2.4 mph WSW3.9 kmh WSW 2.9 mph4.7 kmh 29.92 in1013.2 mb 0.00 in0.0 mm 0.00 in/hr0.0 mm/hr 0.00 in0.0 mm
06:06 PM 83.2°F28.4°C 63.7°F17.6°C 52% 2.2 mph WSW3.5 kmh WSW 4.0 mph6.4 kmh 29.91 in1012.9 mb 0.00 in0.0 mm 0.00 in/hr0.0 mm/hr 0.00 in0.0 mm
06:11 PM 83.2°F28.4°C 64.2°F17.9°C 53% 0.7 mph WSW1.1 kmh WSW 4.0 mph6.4 kmh 29.91 in1012.9 mb 0.00 in0.0 mm 0.00 in/hr0.0 mm/hr 0.00 in0.0 mm
06:16 PM 82.8°F28.2°C 63.8°F17.7°C 53% 1.1 mph NW1.8 kmh NW 2.2 mph3.5 kmh 29.92 in1013.2 mb 0.00 in0.0 mm 0.00 in/hr0.0 mm/hr 0.00 in0.0 mm
06:21 PM 83.5°F28.6°C 65.1°F18.4°C 54% 2.2 mph WSW3.5 kmh WSW 3.8 mph6.1 kmh 29.92 in1013.2 mb 0.00 in0.0 mm 0.00 in/hr0.0 mm/hr 0.00 in0.0 mm
06:26 PM 83.9°F28.8°C 65.4°F18.6°C 54% Calm Calm 3.8 mph6.1 kmh 29.92 in1013.2 mb 0.00 in0.0 mm 0.00 in/hr0.0 mm/hr 0.00 in0.0 mm
06:31 PM 83.3°F28.5°C 64.4°F18.0°C 53% 0.4 mph ENE0.6 kmh ENE 1.6 mph2.6 kmh 29.92 in1013.2 mb 0.00 in0.0 mm 0.00 in/hr0.0 mm/hr 0.00 in0.0 mm
06:36 PM 82.4°F28.0°C 63.5°F17.5°C 53% 1.0 mph WSW1.6 kmh WSW 1.3 mph2.1 kmh 29.92 in1013.2 mb 0.00 in0.0 mm 0.00 in/hr0.0 mm/hr 0.00 in0.0 mm
06:41 PM 81.9°F27.7°C 63.6°F17.6°C 54% 1.0 mph SSW1.6 kmh SSW 2.5 mph4.0 kmh 29.91 in1012.9 mb 0.00 in0.0 mm 0.00 in/hr0.0 mm/hr 0.00 in0.0 mm
06:46 PM 81.4°F27.4°C 63.5°F17.5°C 55% 0.6 mph W1.0 kmh W 2.5 mph4.0 kmh 29.92 in1013.2 mb 0.00 in0.0 mm 0.00 in/hr0.0 mm/hr 0.00 in0.0 mm
06:51 PM 80.8°F27.1°C 63.1°F17.3°C 55% 1.1 mph NW1.8 kmh NW 1.8 mph2.9 kmh 29.92 in1013.2 mb 0.00 in0.0 mm 0.00 in/hr0.0 mm/hr 0.00 in0.0 mm
06:56 PM 80.6°F27.0°C 63.5°F17.5°C 56% 1.0 mph WSW1.6 kmh WSW 3.1 mph5.0 kmh 29.92 in1013.2 mb 0.00 in0.0 mm 0.00 in/hr0.0 mm/hr 0.00 in0.0 mm
07:01 PM 80.3°F26.8°C 63.1°F17.3°C 56% 0.5 mph WSW0.8 kmh WSW 3.1 mph5.0 kmh 29.92 in1013.2 mb 0.00 in0.0 mm 0.00 in/hr0.0 mm/hr 0.00 in0.0 mm
07:06 PM 79.9°F26.6°C 63.3°F17.4°C 57% 0.4 mph WSW0.6 kmh WSW 0.9 mph1.4 kmh 29.92 in1013.2 mb 0.00 in0.0 mm 0.00 in/hr0.0 mm/hr 0.00 in0.0 mm
07:11 PM 79.6°F26.4°C 63.0°F17.2°C 57% 0.4 mph W0.6 kmh W 2.0 mph3.2 kmh 29.92 in1013.2 mb 0.00 in0.0 mm 0.00 in/hr0.0 mm/hr 0.00 in0.0 mm
07:16 PM 79.2°F26.2°C 63.2°F17.3°C 58% 0.4 mph W0.6 kmh W 2.2 mph3.5 kmh 29.92 in1013.2 mb 0.00 in0.0 mm 0.00 in/hr0.0 mm/hr 0.00 in0.0 mm
07:21 PM 78.8°F26.0°C 62.8°F17.1°C 58% 0.2 mph ENE0.3 kmh ENE 2.2 mph3.5 kmh 29.92 in1013.2 mb 0.00 in0.0 mm 0.00 in/hr0.0 mm/hr 0.00 in0.0 mm
07:26 PM 78.7°F25.9°C 62.6°F17.0°C 58% 0.4 mph NNE0.6 kmh NNE 0.9 mph1.4 kmh 29.92 in1013.2 mb 0.00 in0.0 mm 0.00 in/hr0.0 mm/hr 0.00 in0.0 mm
07:31 PM 78.1°F25.6°C 62.6°F17.0°C 59% 0.3 mph W0.5 kmh W 1.8 mph2.9 kmh 29.92 in1013.2 mb 0.00 in0.0 mm 0.00 in/hr0.0 mm/hr 0.00 in0.0 mm
07:36 PM 77.8°F25.4°C 62.3°F16.8°C 59% 0.3 mph W0.5 kmh W 1.8 mph2.9 kmh 29.92 in1013.2 mb 0.00 in0.0 mm 0.00 in/hr0.0 mm/hr 0.00 in0.0 mm
07:41 PM 77.4°F25.2°C 62.5°F16.9°C 60% 0.6 mph SE1.0 kmh SE 1.6 mph2.6 kmh 29.92 in1013.2 mb 0.00 in0.0 mm 0.00 in/hr0.0 mm/hr 0.00 in0.0 mm
07:46 PM 77.2°F25.1°C 62.3°F16.8°C 60% 0.4 mph SSW0.6 kmh SSW 1.6 mph2.6 kmh 29.92 in1013.2 mb 0.00 in0.0 mm 0.00 in/hr0.0 mm/hr 0.00 in0.0 mm
07:51 PM 77.0°F25.0°C 62.6°F17.0°C 61% 0.3 mph WSW0.5 kmh WSW 1.8 mph2.9 kmh 29.93 in1013.5 mb 0.00 in0.0 mm 0.00 in/hr0.0 mm/hr 0.00 in0.0 mm
07:56 PM 76.9°F24.9°C 62.4°F16.9°C 61% 0.3 mph SE0.5 kmh SE 1.8 mph2.9 kmh 29.92 in1013.2 mb 0.00 in0.0 mm 0.00 in/hr0.0 mm/hr 0.00 in0.0 mm
08:01 PM 76.7°F24.8°C 62.6°F17.0°C 62% Calm Calm 1.1 mph1.8 kmh 29.93 in1013.5 mb 0.00 in0.0 mm 0.00 in/hr0.0 mm/hr 0.00 in0.0 mm
08:06 PM 76.3°F24.6°C 62.4°F16.9°C 62% 0.8 mph SW1.3 kmh SW 1.1 mph1.8 kmh 29.93 in1013.5 mb 0.00 in0.0 mm 0.00 in/hr0.0 mm/hr 0.00 in0.0 mm
08:11 PM 76.1°F24.5°C 62.2°F16.8°C 62% 0.3 mph NNE0.5 kmh NNE 1.1 mph1.8 kmh 29.93 in1013.5 mb 0.00 in0.0 mm 0.00 in/hr0.0 mm/hr 0.00 in0.0 mm
08:16 PM 76.0°F24.4°C 62.5°F16.9°C 63% Calm Calm 1.1 mph1.8 kmh 29.93 in1013.5 mb 0.00 in0.0 mm 0.00 in/hr0.0 mm/hr 0.00 in0.0 mm
08:21 PM 75.6°F24.2°C 62.1°F16.7°C 63% 0.4 mph 0.6 kmh 1.1 mph1.8 kmh 29.94 in1013.9 mb 0.00 in0.0 mm 0.00 in/hr0.0 mm/hr 0.00 in0.0 mm
08:26 PM 75.4°F24.1°C 62.4°F16.9°C 64% 0.7 mph 1.1 kmh 0.7 mph1.1 kmh 29.94 in1013.9 mb 0.00 in0.0 mm 0.00 in/hr0.0 mm/hr 0.00 in0.0 mm
08:31 PM 75.4°F24.1°C 62.4°F16.9°C 64% 0.5 mph ENE0.8 kmh ENE 1.1 mph1.8 kmh 29.94 in1013.9 mb 0.00 in0.0 mm 0.00 in/hr0.0 mm/hr 0.00 in0.0 mm
08:36 PM 75.2°F24.0°C 62.2°F16.8°C 64% Calm Calm 1.1 mph1.8 kmh 29.94 in1013.9 mb 0.00 in0.0 mm 0.00 in/hr0.0 mm/hr 0.00 in0.0 mm
08:41 PM 75.2°F24.0°C 62.6°F17.0°C 65% Calm Calm 0.9 mph1.4 kmh 29.95 in1014.2 mb 0.00 in0.0 mm 0.00 in/hr0.0 mm/hr 0.00 in0.0 mm
08:46 PM 75.1°F23.9°C 62.5°F16.9°C 65% Calm Calm 0.4 mph0.6 kmh 29.95 in1014.2 mb 0.00 in0.0 mm 0.00 in/hr0.0 mm/hr 0.00 in0.0 mm
08:51 PM 74.9°F23.8°C 62.3°F16.8°C 65% 0.9 mph WSW1.4 kmh WSW 0.9 mph1.4 kmh 29.95 in1014.2 mb 0.00 in0.0 mm 0.00 in/hr0.0 mm/hr 0.00 in0.0 mm
08:56 PM 74.7°F23.7°C 62.1°F16.7°C 65% Calm Calm 0.9 mph1.4 kmh 29.95 in1014.2 mb 0.00 in0.0 mm 0.00 in/hr0.0 mm/hr 0.00 in0.0 mm
09:01 PM 74.7°F23.7°C 62.1°F16.7°C 65% 0.3 mph ENE0.5 kmh ENE 0.9 mph1.4 kmh 29.95 in1014.2 mb 0.00 in0.0 mm 0.00 in/hr0.0 mm/hr 0.00 in0.0 mm
09:06 PM 74.5°F23.6°C 61.9°F16.6°C 65% 0.4 mph SSW0.6 kmh SSW 0.4 mph0.6 kmh 29.95 in1014.2 mb 0.00 in0.0 mm 0.00 in/hr0.0 mm/hr 0.00 in0.0 mm
09:11 PM 74.5°F23.6°C 62.4°F16.9°C 66% 0.2 mph E0.3 kmh E 0.4 mph0.6 kmh 29.95 in1014.2 mb 0.00 in0.0 mm 0.00 in/hr0.0 mm/hr 0.00 in0.0 mm
09:16 PM 74.2°F23.4°C 62.1°F16.7°C 66% 0.2 mph W0.3 kmh W 0.9 mph1.4 kmh 29.96 in1014.6 mb 0.00 in0.0 mm 0.00 in/hr0.0 mm/hr 0.00 in0.0 mm
09:21 PM 74.2°F23.4°C 62.1°F16.7°C 66% 0.4 mph NE0.6 kmh NE 1.1 mph1.8 kmh 29.96 in1014.6 mb 0.00 in0.0 mm 0.00 in/hr0.0 mm/hr 0.00 in0.0 mm
09:26 PM 73.8°F23.2°C 61.8°F16.6°C 66% Calm Calm 1.1 mph1.8 kmh 29.96 in1014.6 mb 0.00 in0.0 mm 0.00 in/hr0.0 mm/hr 0.00 in0.0 mm
09:31 PM 73.6°F23.1°C 62.0°F16.7°C 67% 0.4 mph NE0.6 kmh NE 0.4 mph0.6 kmh 29.96 in1014.6 mb 0.00 in0.0 mm 0.00 in/hr0.0 mm/hr 0.00 in0.0 mm
09:36 PM 73.4°F23.0°C 62.3°F16.8°C 68% 0.4 mph NE0.6 kmh NE 0.4 mph0.6 kmh 29.96 in1014.6 mb 0.00 in0.0 mm 0.00 in/hr0.0 mm/hr 0.00 in0.0 mm
09:41 PM 73.1°F22.8°C 61.9°F16.6°C 68% 0.4 mph WSW0.6 kmh WSW 0.4 mph0.6 kmh 29.96 in1014.6 mb 0.00 in0.0 mm 0.00 in/hr0.0 mm/hr 0.00 in0.0 mm
09:46 PM 72.7°F22.6°C 61.6°F16.4°C 68% Calm Calm 0.4 mph0.6 kmh 29.96 in1014.6 mb 0.00 in0.0 mm 0.00 in/hr0.0 mm/hr 0.00 in0.0 mm
09:51 PM 72.5°F22.5°C 61.8°F16.6°C 69% Calm Calm 0.4 mph0.6 kmh 29.97 in1014.9 mb 0.00 in0.0 mm 0.00 in/hr0.0 mm/hr 0.00 in0.0 mm
09:56 PM 72.4°F22.4°C 61.7°F16.5°C 69% Calm Calm 0.4 mph0.6 kmh 29.97 in1014.9 mb 0.00 in0.0 mm 0.00 in/hr0.0 mm/hr 0.00 in0.0 mm
10:01 PM 72.2°F22.3°C 61.9°F16.6°C 70% 0.4 mph NNW0.6 kmh NNW 0.4 mph0.6 kmh 29.97 in1014.9 mb 0.00 in0.0 mm 0.00 in/hr0.0 mm/hr 0.00 in0.0 mm
10:06 PM 72.0°F22.2°C 61.7°F16.5°C 70% 0.3 mph 0.5 kmh 0.7 mph1.1 kmh 29.97 in1014.9 mb 0.00 in0.0 mm 0.00 in/hr0.0 mm/hr 0.00 in0.0 mm
10:11 PM 72.0°F22.2°C 62.1°F16.7°C 71% Calm Calm 0.7 mph1.1 kmh 29.97 in1014.9 mb 0.00 in0.0 mm 0.00 in/hr0.0 mm/hr 0.00 in0.0 mm
10:16 PM 72.0°F22.2°C 62.1°F16.7°C 71% 1.1 mph NE1.8 kmh NE 1.1 mph1.8 kmh 29.97 in1014.9 mb 0.00 in0.0 mm 0.00 in/hr0.0 mm/hr 0.00 in0.0 mm
10:21 PM 71.8°F22.1°C 61.6°F16.4°C 70% 0.9 mph NNE1.4 kmh NNE 1.3 mph2.1 kmh 29.97 in1014.9 mb 0.00 in0.0 mm 0.00 in/hr0.0 mm/hr 0.00 in0.0 mm
10:26 PM 71.6°F22.0°C 61.4°F16.3°C 70% 0.5 mph NNE0.8 kmh NNE 1.3 mph2.1 kmh 29.97 in1014.9 mb 0.00 in0.0 mm 0.00 in/hr0.0 mm/hr 0.00 in0.0 mm
10:31 PM 71.6°F22.0°C 61.4°F16.3°C 70% 0.7 mph NNE1.1 kmh NNE 0.9 mph1.4 kmh 29.97 in1014.9 mb 0.00 in0.0 mm 0.00 in/hr0.0 mm/hr 0.00 in0.0 mm
10:36 PM 71.6°F22.0°C 61.4°F16.3°C 70% Calm Calm 0.7 mph1.1 kmh 29.97 in1014.9 mb 0.00 in0.0 mm 0.00 in/hr0.0 mm/hr 0.00 in0.0 mm
10:41 PM 71.5°F21.9°C 61.2°F16.2°C 70% Calm Calm 0.7 mph1.1 kmh 29.97 in1014.9 mb 0.00 in0.0 mm 0.00 in/hr0.0 mm/hr 0.00 in0.0 mm
10:46 PM 71.3°F21.8°C 61.0°F16.1°C 70% Calm Calm 0.7 mph1.1 kmh 29.97 in1014.9 mb 0.00 in0.0 mm 0.00 in/hr0.0 mm/hr 0.00 in0.0 mm
10:51 PM 70.9°F21.6°C 61.0°F16.1°C 71% Calm Calm 0.4 mph0.6 kmh 29.97 in1014.9 mb 0.00 in0.0 mm 0.00 in/hr0.0 mm/hr 0.00 in0.0 mm
10:56 PM 70.7°F21.5°C 60.8°F16.0°C 71% Calm Calm -- 29.97 in1014.9 mb 0.00 in0.0 mm 0.00 in/hr0.0 mm/hr 0.00 in0.0 mm
11:01 PM 70.4°F21.3°C 60.8°F16.0°C 72% Calm Calm -- 29.97 in1014.9 mb 0.00 in0.0 mm 0.00 in/hr0.0 mm/hr 0.00 in0.0 mm
11:06 PM 70.0°F21.1°C 60.9°F16.1°C 73% Calm Calm -- 29.97 in1014.9 mb 0.00 in0.0 mm 0.00 in/hr0.0 mm/hr 0.00 in0.0 mm
11:11 PM 69.7°F20.9°C 60.6°F15.9°C 73% Calm Calm -- 29.97 in1014.9 mb 0.00 in0.0 mm 0.00 in/hr0.0 mm/hr 0.00 in0.0 mm
11:16 PM 69.3°F20.7°C 60.6°F15.9°C 74% Calm Calm 0.9 mph1.4 kmh 29.98 in1015.2 mb 0.00 in0.0 mm 0.00 in/hr0.0 mm/hr 0.00 in0.0 mm
11:21 PM 69.1°F20.6°C 60.5°F15.8°C 74% Calm Calm 0.9 mph1.4 kmh 29.98 in1015.2 mb 0.00 in0.0 mm 0.00 in/hr0.0 mm/hr 0.00 in0.0 mm
11:26 PM 68.8°F20.4°C 60.5°F15.8°C 75% Calm Calm 0.7 mph1.1 kmh 29.98 in1015.2 mb 0.00 in0.0 mm 0.00 in/hr0.0 mm/hr 0.00 in0.0 mm
11:31 PM 68.6°F20.3°C 60.3°F15.7°C 75% Calm Calm -- 29.98 in1015.2 mb 0.00 in0.0 mm 0.00 in/hr0.0 mm/hr 0.00 in0.0 mm
11:36 PM 68.2°F20.1°C 60.4°F15.8°C 76% Calm Calm -- 29.98 in1015.2 mb 0.00 in0.0 mm 0.00 in/hr0.0 mm/hr 0.00 in0.0 mm
11:41 PM 68.0°F20.0°C 60.6°F15.9°C 77% Calm Calm -- 29.98 in1015.2 mb 0.00 in0.0 mm 0.00 in/hr0.0 mm/hr 0.00 in0.0 mm
11:46 PM 67.7°F19.8°C 60.7°F15.9°C 78% Calm Calm -- 29.98 in1015.2 mb 0.00 in0.0 mm 0.00 in/hr0.0 mm/hr 0.00 in0.0 mm
11:51 PM 67.3°F19.6°C 60.3°F15.7°C 78% Calm Calm -- 29.98 in1015.2 mb 0.00 in0.0 mm 0.00 in/hr0.0 mm/hr 0.00 in0.0 mm
11:56 PM 67.3°F19.6°C 60.7°F15.9°C 79% Calm Calm -- 29.98 in1015.2 mb 0.00 in0.0 mm 0.00 in/hr0.0 mm/hr 0.00 in0.0 mm